Time;durP1;ratioP1;P1;durP2;ratioP2;P2;SDS_P1;SDS_P2;PMS_P1;PMS_P2;Temp;Humidity;BMP_temperature;BMP_pressure;BME280_temperature;BME280_humidity;BME280_pressure;Samples;Min_cycle;Max_cycle;Signal;HPM_P1;HPM_P2
2022/09/13 00:07:27;;;;;;;3.87;3.47;;;;;16.10;98487.00;;;;16576129;28;20227;-49
2022/09/13 00:15:31;;;;;;;5.63;3.77;;;;;16.00;98492.00;;;;16580419;28;20209;-49
2022/09/13 00:23:34;;;;;;;3.57;3.37;;;;;16.10;98490.00;;;;16578240;28;20607;-48
2022/09/13 00:31:38;;;;;;;4.70;4.20;;;;;16.60;98475.00;;;;16576111;28;20249;-49
2022/09/13 00:39:40;;;;;;;4.10;3.00;;;;;16.20;98473.00;;;;16576804;28;20246;-49
2022/09/13 00:47:46;;;;;;;4.00;3.67;;;;;16.60;98478.00;;;;16581230;28;20237;-49
2022/09/13 00:55:51;;;;;;;4.50;4.10;;;;;15.70;98487.00;;;;16583801;28;20772;-49
2022/09/13 01:03:56;;;;;;;4.30;3.90;;;;;16.20;98467.00;;;;16589572;28;20222;-49
2022/09/13 01:12:03;;;;;;;3.90;3.60;;;;;16.00;98455.00;;;;16584187;28;20238;-49
2022/09/13 01:20:09;;;;;;;6.40;4.80;;;;;16.20;98455.00;;;;16585880;28;20246;-49
2022/09/13 01:28:39;;;;;;;5.00;4.23;;;;;16.60;98439.00;;;;16583337;28;20226;-49
2022/09/13 01:37:04;;;;;;;3.83;3.53;;;;;16.10;98451.00;;;;16587522;28;20219;-50
2022/09/13 01:45:17;;;;;;;4.43;4.03;;;;;15.70;98461.00;;;;16581985;28;20226;-50
2022/09/13 01:53:27;;;;;;;6.20;4.30;;;;;15.80;98451.00;;;;16588931;28;20219;-49
2022/09/13 02:01:32;;;;;;;6.83;5.70;;;;;16.50;98449.00;;;;16588710;28;20229;-49
2022/09/13 02:09:40;;;;;;;6.27;5.73;;;;;17.10;98462.00;;;;16579784;28;20231;-49
2022/09/13 02:17:45;;;;;;;6.70;5.77;;;;;17.00;98457.00;;;;16588359;28;20222;-49
2022/09/13 02:25:49;;;;;;;8.57;5.60;;;;;17.00;98451.00;;;;16585950;28;20267;-49
2022/09/13 02:33:56;;;;;;;5.77;5.27;;;;;17.10;98463.00;;;;16585732;28;20227;-49
2022/09/13 02:42:06;;;;;;;4.40;3.40;;;;;16.50;98470.00;;;;16582950;28;20234;-49
2022/09/13 02:50:19;;;;;;;6.53;5.93;;;;;16.60;98465.00;;;;16582116;28;20292;-49
2022/09/13 02:58:28;;;;;;;7.03;6.37;;;;;16.80;98457.00;;;;16583958;28;20305;-49
2022/09/13 03:06:30;;;;;;;7.50;6.47;;;;;16.90;98461.00;;;;16578457;28;20346;-49
2022/09/13 03:14:41;;;;;;;7.63;6.83;;;;;16.90;98455.00;;;;16573805;28;20536;-49
2022/09/13 03:22:58;;;;;;;7.60;6.03;;;;;16.80;98443.00;;;;16582838;28;20672;-48
2022/09/13 03:31:05;;;;;;;6.50;5.30;;;;;16.70;98430.00;;;;16580687;28;20612;-49
2022/09/13 03:39:13;;;;;;;5.33;4.83;;;;;16.70;98428.00;;;;16573199;28;20254;-49
2022/09/13 03:47:18;;;;;;;6.17;5.57;;;;;16.30;98448.00;;;;16574234;28;20229;-49
2022/09/13 03:55:21;;;;;;;7.90;5.97;;;;;16.20;98438.00;;;;16572698;28;20203;-49
2022/09/13 04:03:24;;;;;;;5.60;5.10;;;;;16.30;98433.00;;;;16581946;28;20237;-50
2022/09/13 04:11:27;;;;;;;6.50;5.63;;;;;16.10;98436.00;;;;16581363;28;20828;-49
2022/09/13 04:19:31;;;;;;;5.57;5.00;;;;;16.20;98414.00;;;;16577367;28;20226;-49
2022/09/13 04:27:34;;;;;;;5.27;4.77;;;;;16.30;98421.00;;;;16575546;28;20222;-50
2022/09/13 04:35:39;;;;;;;6.17;5.57;;;;;16.20;98433.00;;;;16571931;28;20603;-50
2022/09/13 04:43:42;;;;;;;5.67;5.23;;;;;16.30;98442.00;;;;16572532;28;20222;-49
2022/09/13 04:51:45;;;;;;;4.57;3.80;;;;;16.40;98449.00;;;;16571504;28;20219;-49
2022/09/13 04:59:48;;;;;;;5.37;4.87;;;;;16.40;98443.00;;;;16571870;28;20713;-49
2022/09/13 05:07:52;;;;;;;6.80;4.80;;;;;16.50;98450.00;;;;16573777;28;20219;-49
2022/09/13 05:15:56;;;;;;;5.53;4.70;;;;;16.50;98461.00;;;;16569767;28;20206;-49
2022/09/13 05:24:00;;;;;;;5.30;4.80;;;;;16.60;98464.00;;;;16575068;28;20229;-49
2022/09/13 05:32:03;;;;;;;4.73;4.33;;;;;16.80;98471.00;;;;16571078;28;20241;-48
2022/09/13 05:40:08;;;;;;;5.80;4.10;;;;;17.20;98483.00;;;;16577130;28;20317;-49
2022/09/13 05:48:10;;;;;;;5.90;4.60;;;;;16.70;98496.00;;;;16585651;28;20243;-49
2022/09/13 05:56:16;;;;;;;6.23;3.90;;;;;16.60;98482.00;;;;16576853;28;20206;-50
2022/09/13 06:04:18;;;;;;;5.00;4.60;;;;;15.80;98483.00;;;;16584125;28;20241;-48
2022/09/13 06:12:22;;;;;;;5.60;4.90;;;;;16.60;98475.00;;;;16583198;28;20229;-49
2022/09/13 06:20:25;;;;;;;7.50;4.87;;;;;16.70;98491.00;;;;16583373;28;20318;-49
2022/09/13 06:28:29;;;;;;;7.23;5.10;;;;;17.30;98497.00;;;;16577520;28;20238;-49
2022/09/13 06:36:31;;;;;;;5.57;5.03;;;;;17.70;98493.00;;;;16571905;28;20208;-49
2022/09/13 06:44:35;;;;;;;9.23;5.23;;;;;17.20;98483.00;;;;16583346;28;20223;-49
2022/09/13 06:52:37;;;;;;;6.17;5.30;;;;;17.40;98481.00;;;;16570609;28;20245;-49
2022/09/13 07:00:41;;;;;;;7.87;5.23;;;;;17.60;98478.00;;;;16568555;28;20215;-49
2022/09/13 07:08:44;;;;;;;7.80;5.87;;;;;17.90;98463.00;;;;16567344;28;20594;-50
2022/09/13 07:16:50;;;;;;;8.90;5.83;;;;;18.80;98471.00;;;;16564669;28;20568;-49
2022/09/13 07:24:53;;;;;;;5.93;5.43;;;;;18.50;98462.00;;;;16566875;28;20799;-49
2022/09/13 07:32:56;;;;;;;10.07;6.20;;;;;18.70;98461.00;;;;16571716;28;20625;-49
2022/09/13 07:40:59;;;;;;;7.37;5.73;;;;;18.90;98430.00;;;;16568223;28;20256;-49
2022/09/13 07:49:03;;;;;;;5.80;5.10;;;;;19.60;98452.00;;;;16572716;28;20226;-49
2022/09/13 07:57:06;;;;;;;8.67;5.90;;;;;19.40;98446.00;;;;16565033;28;20227;-50
2022/09/13 08:05:09;;;;;;;8.57;5.20;;;;;20.20;98449.00;;;;16565040;28;20426;-50
2022/09/13 08:13:12;;;;;;;5.13;4.63;;;;;21.00;98431.00;;;;16570011;28;20299;-50
2022/09/13 08:21:16;;;;;;;5.20;4.70;;;;;21.00;98423.00;;;;16571312;28;20230;-50
2022/09/13 08:29:19;;;;;;;5.50;4.90;;;;;21.10;98426.00;;;;16567393;28;20372;-49
2022/09/13 08:37:23;;;;;;;8.73;4.80;;;;;21.10;98422.00;;;;16560801;28;20229;-49
2022/09/13 08:45:26;;;;;;;5.17;3.97;;;;;21.50;98418.00;;;;16567804;28;20215;-49
2022/09/13 08:53:31;;;;;;;9.53;4.13;;;;;22.20;98399.00;;;;16566456;28;20230;-50
2022/09/13 09:01:43;;;;;;;4.33;4.03;;;;;22.40;98394.00;;;;16567629;28;20260;-50
2022/09/13 09:09:51;;;;;;;6.53;4.80;;;;;22.80;98385.00;;;;16559824;28;20237;-49
2022/09/13 09:17:57;;;;;;;7.33;4.10;;;;;23.10;98384.00;;;;16573442;28;20236;-49
2022/09/13 09:26:15;;;;;;;3.80;3.03;;;;;23.80;98378.00;;;;16581521;28;20229;-49
2022/09/13 09:34:25;;;;;;;6.60;2.70;;;;;24.80;98385.00;;;;16577330;28;20228;-49
2022/09/13 09:42:34;;;;;;;5.93;3.47;;;;;26.10;98375.00;;;;16578204;28;20215;-51
2022/09/13 09:50:39;;;;;;;8.27;3.30;;;;;27.40;98368.00;;;;16581808;28;20231;-50
2022/09/13 09:58:45;;;;;;;4.13;2.87;;;;;27.80;98369.00;;;;16565513;28;20361;-50
2022/09/13 10:06:47;;;;;;;6.40;4.20;;;;;28.50;98382.00;;;;16573760;28;20854;-50
2022/09/13 10:14:57;;;;;;;10.67;3.73;;;;;27.80;98395.00;;;;16568579;28;20200;-51
2022/09/13 10:23:11;;;;;;;7.30;4.60;;;;;28.40;98390.00;;;;16575897;28;20630;-51
2022/09/13 10:31:17;;;;;;;3.43;2.53;;;;;29.70;98366.00;;;;16572444;28;20228;-49
2022/09/13 10:39:22;;;;;;;6.57;3.30;;;;;30.00;98358.00;;;;16580016;28;20211;-49
2022/09/13 10:47:28;;;;;;;7.00;4.10;;;;;31.40;98357.00;;;;16572986;28;20239;-50
2022/09/13 10:55:33;;;;;;;5.37;3.47;;;;;31.70;98350.00;;;;16576330;28;20207;-50
2022/09/13 11:03:58;;;;;;;2.40;1.53;;;;;31.70;98342.00;;;;16578618;28;20595;-50
2022/09/13 11:12:08;;;;;;;2.67;2.10;;;;;32.80;98332.00;;;;16579880;28;20238;-50
2022/09/13 11:20:28;;;;;;;1.97;1.80;;;;;31.40;98337.00;;;;16583980;28;20235;-50
2022/09/13 11:28:38;;;;;;;3.97;1.60;;;;;30.90;98336.00;;;;16579178;28;20318;-50
2022/09/13 11:37:04;;;;;;;2.07;1.37;;;;;29.90;98343.00;;;;16583281;28;20203;-50
2022/09/13 11:45:18;;;;;;;1.83;1.43;;;;;30.70;98336.00;;;;16577366;28;20709;-50
2022/09/13 11:53:43;;;;;;;4.03;1.93;;;;;32.10;98338.00;;;;16581599;28;20219;-50
2022/09/13 12:01:48;;;;;;;7.53;3.60;;;;;32.40;98329.00;;;;16581455;28;20241;-50
2022/09/13 12:09:58;;;;;;;2.30;1.53;;;;;33.20;98326.00;;;;16575701;28;20235;-50
2022/09/13 12:18:05;;;;;;;2.67;1.00;;;;;31.40;98318.00;;;;16577553;28;20219;-50
2022/09/13 12:26:10;;;;;;;2.07;1.30;;;;;31.90;98329.00;;;;16577723;28;20211;-50
2022/09/13 12:34:21;;;;;;;15.63;2.33;;;;;34.40;98316.00;;;;16578897;28;20226;-50
2022/09/13 12:42:46;;;;;;;1.27;1.17;;;;;34.90;98315.00;;;;16575088;28;20207;-51
2022/09/13 12:51:08;;;;;;;3.10;0.90;;;;;34.90;98297.00;;;;16568274;28;20226;-50
2022/09/13 12:59:40;;;;;;;1.23;1.10;;;;;34.90;98281.00;;;;16576036;28;20302;-51
2022/09/13 13:07:46;;;;;;;2.20;1.17;;;;;35.30;98256.00;;;;16564027;28;20372;-50
2022/09/13 13:16:06;;;;;;;1.30;1.10;;;;;35.60;98249.00;;;;16572589;28;20230;-50
2022/09/13 13:24:43;;;;;;;1.00;0.90;;;;;34.70;98236.00;;;;16564070;28;20238;-51
2022/09/13 13:33:13;;;;;;;2.50;1.07;;;;;34.70;98244.00;;;;16573919;28;20803;-50
2022/09/13 13:41:51;;;;;;;1.10;0.90;;;;;35.30;98239.00;;;;16559795;28;20229;-51
2022/09/13 13:50:12;;;;;;;1.87;0.93;;;;;36.90;98223.00;;;;16490454;28;20232;-50
2022/09/13 13:58:31;;;;;;;1.00;0.70;;;;;35.00;98217.00;;;;16562295;28;20219;-51
2022/09/13 14:06:39;;;;;;;0.57;0.50;;;;;34.00;98218.00;;;;16569355;28;20219;-50
2022/09/13 14:14:53;;;;;;;0.60;0.40;;;;;35.10;98210.00;;;;16572577;28;20213;-50
2022/09/13 14:23:17;;;;;;;1.07;0.97;;;;;33.80;98213.00;;;;16575088;28;20226;-50
2022/09/13 14:31:20;;;;;;;0.73;0.60;;;;;34.40;98204.00;;;;16561550;28;20226;-48
2022/09/13 14:39:24;;;;;;;1.30;0.70;;;;;34.90;98189.00;;;;16570282;28;20230;-50
2022/09/13 14:47:30;;;;;;;1.40;0.80;;;;;35.40;98192.00;;;;16576605;28;20228;-50
2022/09/13 14:55:37;;;;;;;1.10;0.83;;;;;34.40;98189.00;;;;16570133;28;20588;-50
2022/09/13 15:03:42;;;;;;;1.30;1.13;;;;;34.40;98174.00;;;;16575308;28;20714;-52
2022/09/13 15:11:58;;;;;;;1.00;0.70;;;;;34.40;98151.00;;;;16574358;28;20552;-50
2022/09/13 15:20:05;;;;;;;1.93;1.73;;;;;34.70;98145.00;;;;16564183;28;20238;-51
2022/09/13 15:28:21;;;;;;;7.17;2.23;;;;;35.40;98148.00;;;;16566032;28;20231;-51
2022/09/13 15:36:30;;;;;;;1.77;1.60;;;;;34.40;98140.00;;;;16570661;28;20626;-50
2022/09/13 15:44:34;;;;;;;2.90;2.17;;;;;33.30;98135.00;;;;16570044;28;20757;-50
2022/09/13 15:52:36;;;;;;;1.87;1.67;;;;;32.70;98120.00;;;;16584230;28;20889;-50
2022/09/13 16:00:42;;;;;;;3.10;2.80;;;;;31.80;98115.00;;;;16579182;28;20229;-50
2022/09/13 16:08:45;;;;;;;4.20;3.57;;;;;31.80;98099.00;;;;16582711;28;20708;-50
2022/09/13 16:16:51;;;;;;;2.70;2.23;;;;;31.40;98083.00;;;;16582556;28;20285;-50
2022/09/13 16:24:56;;;;;;;3.10;2.50;;;;;31.50;98082.00;;;;16580085;28;20288;-50
2022/09/13 16:33:00;;;;;;;4.30;1.90;;;;;29.70;98082.00;;;;16575344;28;20303;-50
2022/09/13 16:41:05;;;;;;;3.30;1.30;;;;;27.50;98098.00;;;;16566188;28;20775;-49
2022/09/13 16:49:09;;;;;;;4.23;2.20;;;;;27.60;98095.00;;;;16569160;28;20230;-50
2022/09/13 16:57:16;;;;;;;2.13;1.80;;;;;26.50;98078.00;;;;16575658;28;20886;-50
2022/09/13 17:05:19;;;;;;;2.97;1.83;;;;;26.40;98070.00;;;;16568938;28;20294;-51
2022/09/13 17:13:22;;;;;;;4.60;2.50;;;;;25.70;98077.00;;;;16574586;28;21020;-50
2022/09/13 17:21:27;;;;;;;4.27;2.00;;;;;25.20;98074.00;;;;16575786;28;20242;-49
2022/09/13 17:29:32;;;;;;;4.07;2.60;;;;;25.40;98070.00;;;;16565743;28;20227;-49
2022/09/13 17:37:35;;;;;;;4.70;2.63;;;;;25.00;98070.00;;;;16580402;28;20233;-50
2022/09/13 17:45:38;;;;;;;2.57;2.37;;;;;24.60;98059.00;;;;16581165;28;20231;-50
2022/09/13 17:53:44;;;;;;;2.40;1.90;;;;;24.40;98070.00;;;;16584304;28;20237;-50
2022/09/13 18:01:47;;;;;;;4.93;2.43;;;;;24.00;98065.00;;;;16577988;28;20233;-50
2022/09/13 18:09:51;;;;;;;4.70;2.77;;;;;23.60;98074.00;;;;16574711;28;20223;-50
2022/09/13 18:17:54;;;;;;;2.47;2.20;;;;;23.50;98071.00;;;;16581645;28;20225;-50
2022/09/13 18:25:58;;;;;;;3.33;2.40;;;;;23.20;98080.00;;;;16583963;28;20191;-50
2022/09/13 18:34:02;;;;;;;2.47;2.27;;;;;23.10;98082.00;;;;16571147;28;20223;-50
2022/09/13 18:42:09;;;;;;;8.70;2.60;;;;;22.70;98089.00;;;;16579753;28;20362;-49
2022/09/13 18:50:12;;;;;;;2.93;2.20;;;;;22.70;98089.00;;;;16573184;28;20230;-50
2022/09/13 18:58:15;;;;;;;3.67;1.93;;;;;22.50;98090.00;;;;16569754;28;20223;-49
2022/09/13 19:06:20;;;;;;;2.83;2.20;;;;;22.50;98108.00;;;;16574980;28;20203;-51
2022/09/13 19:14:25;;;;;;;3.77;2.07;;;;;22.70;98104.00;;;;16580955;28;20235;-50
2022/09/13 19:22:28;;;;;;;7.03;2.60;;;;;22.40;98111.00;;;;16574987;28;20229;-49
2022/09/13 19:30:34;;;;;;;4.33;2.33;;;;;22.30;98107.00;;;;16566709;28;20228;-50
2022/09/13 19:38:37;;;;;;;5.20;2.90;;;;;22.30;98113.00;;;;16547463;28;20680;-49
2022/09/13 19:46:41;;;;;;;3.10;2.73;;;;;22.50;98121.00;;;;16564553;28;20257;-49
2022/09/13 19:54:44;;;;;;;5.00;3.47;;;;;22.10;98137.00;;;;16559576;28;20207;-50
2022/09/13 20:02:49;;;;;;;2.50;2.20;;;;;22.60;98129.00;;;;16566730;28;20725;-49
2022/09/13 20:10:52;;;;;;;2.60;2.40;;;;;22.30;98113.00;;;;16578129;28;20237;-51
2022/09/13 20:18:57;;;;;;;5.37;2.93;;;;;22.30;98113.00;;;;16575501;28;20223;-52
2022/09/13 20:27:00;;;;;;;4.13;2.70;;;;;21.90;98113.00;;;;16578899;28;20229;-51
2022/09/13 20:35:05;;;;;;;2.43;2.03;;;;;21.90;98107.00;;;;16567046;28;20195;-51
2022/09/13 20:43:08;;;;;;;2.30;2.10;;;;;21.70;98097.00;;;;16567812;28;20227;-51
2022/09/13 20:51:15;;;;;;;4.63;2.60;;;;;21.50;98091.00;;;;16571705;28;20634;-50
2022/09/13 20:59:17;;;;;;;4.03;2.60;;;;;21.50;98092.00;;;;16564713;28;20314;-51
2022/09/13 21:15:41;;;;;;;4.90;2.40;;;;;21.40;98078.00;;;;16572196;28;20242;-49
2022/09/13 21:23:46;;;;;;;3.30;2.30;;;;;21.40;98073.00;;;;16568102;28;20242;-49
2022/09/13 21:31:48;;;;;;;3.10;2.40;;;;;21.60;98069.00;;;;16572467;28;20231;-50
2022/09/13 21:39:52;;;;;;;3.67;2.73;;;;;21.90;98071.00;;;;16571345;28;20215;-50
2022/09/13 21:47:56;;;;;;;3.47;2.23;;;;;22.00;98063.00;;;;16573058;28;20235;-50
2022/09/13 21:56:02;;;;;;;2.73;2.37;;;;;21.70;98058.00;;;;16568771;28;20204;-49
2022/09/13 22:04:05;;;;;;;4.70;2.47;;;;;21.50;98040.00;;;;16577922;28;20222;-49
2022/09/13 22:12:09;;;;;;;5.93;2.90;;;;;21.30;98026.00;;;;16576748;28;20667;-50
2022/09/13 22:20:12;;;;;;;2.83;2.53;;;;;20.80;98043.00;;;;16584893;28;20310;-50
2022/09/13 22:28:16;;;;;;;4.63;3.10;;;;;21.30;98044.00;;;;16584688;28;20263;-49
2022/09/13 22:36:19;;;;;;;2.70;2.47;;;;;21.60;98016.00;;;;16581424;28;20210;-49
2022/09/13 22:44:23;;;;;;;3.23;2.40;;;;;21.30;98001.00;;;;16579890;28;20214;-50
2022/09/13 22:52:25;;;;;;;3.00;2.40;;;;;21.20;98011.00;;;;16579141;28;20215;-49
2022/09/13 23:00:29;;;;;;;2.90;2.60;;;;;21.10;98022.00;;;;16583215;28;20226;-49
2022/09/13 23:08:33;;;;;;;3.80;2.37;;;;;21.70;98002.00;;;;16581994;28;20241;-50
2022/09/13 23:16:40;;;;;;;2.67;2.27;;;;;21.90;97993.00;;;;16575141;28;20205;-49
2022/09/13 23:24:43;;;;;;;4.17;3.10;;;;;21.20;97988.00;;;;16584156;28;20577;-49
2022/09/13 23:32:49;;;;;;;3.17;2.13;;;;;21.40;97975.00;;;;16583503;28;20620;-49
2022/09/13 23:40:51;;;;;;;3.00;2.33;;;;;21.40;97973.00;;;;16582494;28;20243;-49
2022/09/13 23:48:55;;;;;;;4.80;2.37;;;;;21.30;97970.00;;;;16583851;28;20238;-49
2022/09/13 23:56:57;;;;;;;3.23;2.37;;;;;21.60;97958.00;;;;16578557;28;20237;-49
